Time;durP1;ratioP1;P1;durP2;ratioP2;P2;SDS_P1;SDS_P2;PMS_P1;PMS_P2;Temp;Humidity;BMP_temperature;BMP_pressure;BME280_temperature;BME280_humidity;BME280_pressure;Samples;Min_cycle;Max_cycle;Signal;HPM_P1;HPM_P2
2021/04/12 00:00:32;;;;;;;;;;;;;;;3.97;100.00;100837.47;5092121;28;20371;-72
2021/04/12 00:03:01;;;;;;;;;;;;;;;3.95;100.00;100833.97;5091666;28;20402;-72
2021/04/12 00:05:41;;;;;;;;;;;;;;;3.93;100.00;100848.44;5091756;28;20139;-72
2021/04/12 00:08:11;;;;;;;;;;;;;;;3.88;100.00;100850.50;5074110;28;19925;-72
2021/04/12 00:10:40;;;;;;;;;;;;;;;3.83;100.00;100851.59;5091683;28;19955;-72
2021/04/12 00:13:07;;;;;;;;;;;;;;;3.78;100.00;100871.56;5073934;28;19931;-72
2021/04/12 00:15:37;;;;;;;;;;;;;;;3.78;100.00;100875.16;5091705;28;19932;-72
2021/04/12 00:18:07;;;;;;;;;;;;;;;3.76;100.00;100877.03;5092026;28;20383;-72
2021/04/12 00:20:35;;;;;;;;;;;;;;;3.80;100.00;100881.28;5091534;28;19928;-72
2021/04/12 00:23:04;;;;;;;;;;;;;;;3.76;100.00;100870.81;5091298;28;19924;-72
2021/04/12 00:25:33;;;;;;;;;;;;;;;3.75;100.00;100882.47;5091451;28;19931;-72
2021/04/12 00:28:02;;;;;;;;;;;;;;;3.66;100.00;100892.75;5091754;28;20021;-72
2021/04/12 00:30:33;;;;;;;;;;;;;;;3.67;100.00;100898.97;5091537;28;19991;-72
2021/04/12 00:33:02;;;;;;;;;;;;;;;3.63;100.00;100898.25;5091546;28;19931;-72
2021/04/12 00:35:31;;;;;;;;;;;;;;;3.67;100.00;100881.06;5072996;28;19960;-71
2021/04/12 00:38:01;;;;;;;;;;;;;;;3.65;100.00;100891.00;5091285;28;19928;-72
2021/04/12 00:40:31;;;;;;;;;;;;;;;3.55;100.00;100880.78;5091538;28;20485;-72
2021/04/12 00:43:06;;;;;;;;;;;;;;;3.47;100.00;100886.53;5091729;28;19932;-72
2021/04/12 00:45:37;;;;;;;;;;;;;;;3.42;100.00;100897.50;5091142;28;19987;-72
2021/04/12 00:48:22;;;;;;;;;;;;;;;3.37;100.00;100912.94;5073459;28;20034;-72
2021/04/12 00:50:52;;;;;;;;;;;;;;;3.35;100.00;100923.75;5091308;28;19944;-72
2021/04/12 00:53:45;;;;;;;;;;;;;;;3.25;100.00;100918.91;5091182;28;20372;-72
2021/04/12 00:56:15;;;;;;;;;;;;;;;3.22;100.00;100895.78;5054620;28;19946;-72
2021/04/12 00:58:46;;;;;;;;;;;;;;;3.13;100.00;100905.13;5091351;28;19931;-72
2021/04/12 01:01:33;;;;;;;;;;;;;;;3.03;100.00;100893.06;5091249;28;19928;-73
2021/04/12 01:04:17;;;;;;;;;;;;;;;3.01;100.00;100917.28;5086290;28;19924;-72
2021/04/12 01:06:57;;;;;;;;;;;;;;;2.99;100.00;100913.84;5090650;28;19992;-72
2021/04/12 01:09:34;;;;;;;;;;;;;;;2.98;100.00;100925.50;5091227;28;19924;-71
2021/04/12 01:12:21;;;;;;;;;;;;;;;3.00;100.00;100923.59;5091218;28;19931;-72
2021/04/12 01:15:03;;;;;;;;;;;;;;;2.98;100.00;100928.19;5090471;28;19927;-72
2021/04/12 01:17:38;;;;;;;;;;;;;;;2.91;100.00;100932.06;5090988;28;19931;-72
2021/04/12 01:20:22;;;;;;;;;;;;;;;2.84;100.00;100949.38;5090818;28;19928;-72
2021/04/12 01:23:06;;;;;;;;;;;;;;;2.86;100.00;100958.25;5090982;28;19953;-72
2021/04/12 01:26:03;;;;;;;;;;;;;;;2.93;100.00;100921.28;5090676;28;19928;-72
2021/04/12 01:28:56;;;;;;;;;;;;;;;2.92;100.00;100933.81;5072641;28;19974;-72
2021/04/12 01:31:48;;;;;;;;;;;;;;;2.97;100.00;100957.75;5054523;28;19924;-72
2021/04/12 01:34:35;;;;;;;;;;;;;;;3.00;100.00;100973.69;5091858;28;20004;-72
2021/04/12 01:37:20;;;;;;;;;;;;;;;2.90;100.00;100975.03;5094811;28;19923;-72
2021/04/12 01:39:54;;;;;;;;;;;;;;;2.84;100.00;100987.78;5076655;28;19924;-72
2021/04/12 01:42:31;;;;;;;;;;;;;;;2.83;100.00;100985.19;5094626;28;19928;-72
2021/04/12 01:45:03;;;;;;;;;;;;;;;2.77;100.00;100999.72;5094590;28;19974;-72
2021/04/12 01:47:40;;;;;;;;;;;;;;;2.72;100.00;101012.47;5094332;28;19924;-72
2021/04/12 01:50:19;;;;;;;;;;;;;;;2.65;100.00;101019.03;5076241;28;19998;-72
2021/04/12 01:53:03;;;;;;;;;;;;;;;2.64;100.00;101012.78;5094601;28;19927;-72
2021/04/12 01:55:36;;;;;;;;;;;;;;;2.72;100.00;101014.28;5095135;28;20281;-72
2021/04/12 01:58:25;;;;;;;;;;;;;;;2.71;100.00;101018.75;5076424;28;20379;-72
2021/04/12 02:00:59;;;;;;;;;;;;;;;2.63;100.00;101026.25;5078959;28;19924;-72
2021/04/12 02:03:29;;;;;;;;;;;;;;;2.60;100.00;101032.63;5094396;28;19931;-72
2021/04/12 02:06:15;;;;;;;;;;;;;;;2.59;100.00;101040.75;5094327;28;20453;-73
2021/04/12 02:08:43;;;;;;;;;;;;;;;2.61;100.00;101034.38;5076590;28;19932;-73
2021/04/12 02:11:16;;;;;;;;;;;;;;;2.62;100.00;101032.56;5096241;28;19928;-73
2021/04/12 02:13:50;;;;;;;;;;;;;;;2.67;100.00;101034.13;5095487;28;20440;-73
2021/04/12 02:16:22;;;;;;;;;;;;;;;2.68;100.00;101045.72;5095906;28;19931;-72
2021/04/12 02:19:14;;;;;;;;;;;;;;;2.66;100.00;101056.50;5094783;28;19977;-72
2021/04/12 02:21:53;;;;;;;;;;;;;;;2.66;100.00;101047.59;5075607;28;19924;-72
2021/04/12 02:24:30;;;;;;;;;;;;;;;2.64;100.00;101038.75;5093685;28;19924;-72
2021/04/12 02:27:03;;;;;;;;;;;;;;;2.59;100.00;101030.91;5093392;28;19924;-72
2021/04/12 02:29:35;;;;;;;;;;;;;;;2.56;100.00;101032.84;5093397;28;19928;-72
2021/04/12 02:32:07;;;;;;;;;;;;;;;2.54;100.00;101038.28;5093476;28;19935;-72
2021/04/12 02:34:37;;;;;;;;;;;;;;;2.51;100.00;101043.75;5093429;28;19926;-72
2021/04/12 02:37:08;;;;;;;;;;;;;;;2.50;100.00;101042.88;5093728;28;19924;-72
2021/04/12 02:39:45;;;;;;;;;;;;;;;2.47;100.00;101044.81;5093631;28;19928;-72
2021/04/12 02:42:17;;;;;;;;;;;;;;;2.41;100.00;101047.78;5093641;28;19924;-72
2021/04/12 02:44:49;;;;;;;;;;;;;;;2.31;100.00;101048.16;5093078;28;19924;-72
2021/04/12 02:47:29;;;;;;;;;;;;;;;2.31;100.00;101048.16;5093135;28;19924;-72
2021/04/12 02:50:01;;;;;;;;;;;;;;;2.33;100.00;101054.31;5093264;28;20395;-72
2021/04/12 02:52:30;;;;;;;;;;;;;;;2.32;100.00;101039.16;5092873;28;19974;-72
2021/04/12 02:55:08;;;;;;;;;;;;;;;2.30;100.00;101037.50;5058747;28;20337;-72
2021/04/12 02:57:59;;;;;;;;;;;;;;;2.30;100.00;101045.53;5093474;28;19970;-72
2021/04/12 03:00:32;;;;;;;;;;;;;;;2.28;100.00;101044.72;5093259;28;20306;-72
2021/04/12 03:03:16;;;;;;;;;;;;;;;2.31;100.00;101041.91;5092767;28;20356;-72
2021/04/12 03:05:57;;;;;;;;;;;;;;;2.33;100.00;101048.94;5093254;28;19928;-72
2021/04/12 03:08:26;;;;;;;;;;;;;;;2.33;100.00;101050.75;5059396;28;19931;-72
2021/04/12 03:11:06;;;;;;;;;;;;;;;2.33;100.00;101050.75;5093387;28;19924;-72
2021/04/12 03:13:51;;;;;;;;;;;;;;;2.36;100.00;101053.31;5093061;28;19928;-72
2021/04/12 03:16:35;;;;;;;;;;;;;;;2.43;100.00;101060.16;5092587;28;19924;-72
2021/04/12 03:19:09;;;;;;;;;;;;;;;2.44;100.00;101055.66;5073958;28;19924;-72
2021/04/12 03:21:53;;;;;;;;;;;;;;;2.44;100.00;101045.81;5092263;28;19924;-72
2021/04/12 03:24:22;;;;;;;;;;;;;;;2.44;100.00;101053.84;5092684;28;20306;-72
2021/04/12 03:27:03;;;;;;;;;;;;;;;2.43;100.00;101054.81;5092344;28;19950;-72
2021/04/12 03:29:35;;;;;;;;;;;;;;;2.53;100.00;101062.47;5079422;28;19924;-72
2021/04/12 03:32:10;;;;;;;;;;;;;;;2.57;100.00;101070.31;5092472;28;19985;-72
2021/04/12 03:34:38;;;;;;;;;;;;;;;2.59;100.00;101059.50;5092332;28;19931;-72
2021/04/12 03:37:11;;;;;;;;;;;;;;;2.61;100.00;101058.50;5092387;28;19969;-72
2021/04/12 03:39:45;;;;;;;;;;;;;;;2.55;100.00;101061.44;5092237;28;20395;-72
2021/04/12 03:42:18;;;;;;;;;;;;;;;2.53;100.00;101057.09;5092615;28;19924;-72
2021/04/12 03:45:03;;;;;;;;;;;;;;;2.55;100.00;101057.91;5091504;28;19989;-72
2021/04/12 03:47:39;;;;;;;;;;;;;;;2.55;100.00;101061.44;5092083;28;19991;-72
2021/04/12 03:50:21;;;;;;;;;;;;;;;2.61;100.00;101060.31;5092067;28;20019;-72
2021/04/12 03:53:13;;;;;;;;;;;;;;;2.62;100.00;101062.03;5091803;28;20015;-72
2021/04/12 03:55:45;;;;;;;;;;;;;;;2.62;100.00;101064.72;5091853;28;20016;-72
2021/04/12 03:58:39;;;;;;;;;;;;;;;2.63;100.00;101075.41;5091320;28;19930;-72
2021/04/12 04:01:17;;;;;;;;;;;;;;;2.60;100.00;101090.75;5073941;28;20342;-72
2021/04/12 04:03:48;;;;;;;;;;;;;;;2.58;100.00;101082.78;5091541;28;19928;-72
2021/04/12 04:06:22;;;;;;;;;;;;;;;2.63;100.00;101095.97;5091855;28;19924;-72
2021/04/12 04:08:56;;;;;;;;;;;;;;;2.62;100.00;101094.22;5091712;28;19931;-72
2021/04/12 04:11:36;;;;;;;;;;;;;;;2.65;100.00;101088.75;5091768;28;19931;-72
2021/04/12 04:14:16;;;;;;;;;;;;;;;2.66;100.00;101099.41;5089208;28;20006;-72
2021/04/12 04:16:50;;;;;;;;;;;;;;;2.66;100.00;101095.84;5073219;28;20440;-72
2021/04/12 04:19:22;;;;;;;;;;;;;;;2.61;100.00;101096.03;5091476;28;19924;-72
2021/04/12 04:22:03;;;;;;;;;;;;;;;2.64;100.00;101105.75;5091376;28;20027;-72
2021/04/12 04:24:47;;;;;;;;;;;;;;;2.63;100.00;101112.94;5091653;28;19947;-72
2021/04/12 04:27:35;;;;;;;;;;;;;;;2.66;100.00;101120.84;5092500;28;20356;-72
2021/04/12 04:30:05;;;;;;;;;;;;;;;2.67;100.00;101140.47;5091524;28;19935;-72
2021/04/12 04:32:51;;;;;;;;;;;;;;;2.70;100.00;101135.00;5090624;28;19950;-72
2021/04/12 04:35:20;;;;;;;;;;;;;;;2.71;100.00;101141.22;5091146;28;19924;-72
2021/04/12 04:37:54;;;;;;;;;;;;;;;2.71;100.00;101142.09;5091152;28;19932;-72
2021/04/12 04:40:37;;;;;;;;;;;;;;;2.72;100.00;101141.16;5091026;28;19938;-72
2021/04/12 04:43:10;;;;;;;;;;;;;;;2.75;100.00;101149.06;5090080;28;19925;-72
2021/04/12 04:45:50;;;;;;;;;;;;;;;2.73;100.00;101156.31;5088564;28;20377;-72
2021/04/12 04:48:24;;;;;;;;;;;;;;;2.73;100.00;101156.31;5090319;28;19930;-72
2021/04/12 04:51:17;;;;;;;;;;;;;;;2.77;100.00;101157.94;5089934;28;19931;-72
2021/04/12 04:53:54;;;;;;;;;;;;;;;2.77;100.00;101174.00;5054613;28;19931;-73
2021/04/12 04:56:23;;;;;;;;;;;;;;;2.82;100.00;101174.69;5090411;28;19924;-73
2021/04/12 04:58:59;;;;;;;;;;;;;;;2.81;100.00;101183.66;5090632;28;19928;-73
2021/04/12 05:01:44;;;;;;;;;;;;;;;2.81;100.00;101178.31;5070560;28;20265;-72
2021/04/12 05:04:15;;;;;;;;;;;;;;;2.77;100.00;101192.78;5073603;28;20041;-72
2021/04/12 05:07:05;;;;;;;;;;;;;;;2.79;100.00;101198.06;5072251;28;19931;-72
2021/04/12 05:09:40;;;;;;;;;;;;;;;2.84;100.00;101201.44;5091751;28;20291;-72
2021/04/12 05:12:16;;;;;;;;;;;;;;;2.90;100.00;101200.31;5089721;28;20393;-72
2021/04/12 05:14:52;;;;;;;;;;;;;;;2.87;100.00;101197.75;5109524;28;20375;-72
2021/04/12 05:17:39;;;;;;;;;;;;;;;2.85;100.00;101212.09;5094713;28;19981;-72
2021/04/12 05:20:14;;;;;;;;;;;;;;;2.83;100.00;101219.34;5074338;28;19948;-72
2021/04/12 05:22:57;;;;;;;;;;;;;;;2.91;100.00;101223.50;5090436;28;19924;-73
2021/04/12 05:25:40;;;;;;;;;;;;;;;2.93;100.00;101227.88;5083953;28;19950;-72
2021/04/12 05:28:17;;;;;;;;;;;;;;;2.97;100.00;101228.63;5087180;28;19924;-70
2021/04/12 05:30:51;;;;;;;;;;;;;;;2.96;100.00;101229.56;5094510;28;19928;-72
2021/04/12 05:33:31;;;;;;;;;;;;;;;2.95;100.00;101242.13;5094283;28;19928;-72
2021/04/12 05:36:11;;;;;;;;;;;;;;;2.89;100.00;101244.19;5076207;28;19924;-72
2021/04/12 05:38:57;;;;;;;;;;;;;;;2.95;100.00;101247.47;5074315;28;20475;-72
2021/04/12 05:41:30;;;;;;;;;;;;;;;2.89;100.00;101246.84;5081713;28;19924;-72
2021/04/12 05:44:15;;;;;;;;;;;;;;;2.96;100.00;101248.34;5081787;28;19993;-71
2021/04/12 05:46:58;;;;;;;;;;;;;;;2.90;100.00;101249.47;5093383;28;19935;-72
2021/04/12 05:49:34;;;;;;;;;;;;;;;2.98;100.00;101257.19;5083050;28;19924;-71
2021/04/12 05:52:12;;;;;;;;;;;;;;;2.93;100.00;101260.06;5094008;28;19932;-72
2021/04/12 05:54:51;;;;;;;;;;;;;;;3.04;100.00;101256.06;5093654;28;19928;-72
2021/04/12 05:57:30;;;;;;;;;;;;;;;3.08;100.00;101253.19;5093864;28;19936;-72
2021/04/12 06:00:16;;;;;;;;;;;;;;;3.16;100.00;101271.66;5075914;28;20315;-72
2021/04/12 06:02:53;;;;;;;;;;;;;;;3.18;100.00;101270.66;5075543;28;19928;-72
2021/04/12 06:05:23;;;;;;;;;;;;;;;3.23;100.00;101278.50;5093288;28;19924;-72
2021/04/12 06:08:10;;;;;;;;;;;;;;;3.31;100.00;101272.81;5093375;28;19928;-72
2021/04/12 06:10:44;;;;;;;;;;;;;;;3.27;100.00;101280.13;5093140;28;19947;-71
2021/04/12 06:13:35;;;;;;;;;;;;;;;3.28;100.00;101289.06;5094146;28;19931;-72
2021/04/12 06:16:07;;;;;;;;;;;;;;;3.23;100.00;101285.69;5093063;28;19924;-72
2021/04/12 06:18:52;;;;;;;;;;;;;;;3.24;100.00;101295.50;5093458;28;20436;-72
2021/04/12 06:21:35;;;;;;;;;;;;;;;3.34;100.00;101308.47;5092521;28;19931;-71
2021/04/12 06:24:18;;;;;;;;;;;;;;;3.43;100.00;101307.19;5093512;28;19932;-72
2021/04/12 06:27:03;;;;;;;;;;;;;;;3.45;100.00;101313.38;5090261;28;19958;-72
2021/04/12 06:29:33;;;;;;;;;;;;;;;3.52;100.00;101322.91;5092842;28;19935;-72
2021/04/12 06:32:18;;;;;;;;;;;;;;;3.42;100.00;101316.19;5073120;28;19924;-72
2021/04/12 06:35:02;;;;;;;;;;;;;;;3.56;100.00;101326.34;5086692;28;19936;-72
2021/04/12 06:37:40;;;;;;;;;;;;;;;3.47;100.00;101349.06;5084923;28;19936;-72
2021/04/12 06:40:39;;;;;;;;;;;;;;;3.58;100.00;101337.00;5091717;28;20429;-72
2021/04/12 06:43:37;;;;;;;;;;;;;;;3.48;100.00;101336.53;5092919;28;20046;-71
2021/04/12 06:46:26;;;;;;;;;;;;;;;3.43;100.00;101330.47;5087907;28;19924;-72
2021/04/12 06:49:13;;;;;;;;;;;;;;;3.48;100.00;101341.91;5092228;28;19924;-71
2021/04/12 06:51:53;;;;;;;;;;;;;;;3.58;100.00;101347.75;5091984;28;20471;-72
2021/04/12 06:54:32;;;;;;;;;;;;;;;3.62;100.00;101349.38;5091273;28;19989;-71
2021/04/12 06:57:17;;;;;;;;;;;;;;;3.65;100.00;101347.44;5092605;28;20394;-71
2021/04/12 07:00:01;;;;;;;;;;;;;;;3.77;100.00;101356.78;5090484;28;19924;-72
2021/04/12 07:02:45;;;;;;;;;;;;;;;3.65;100.00;101351.94;5092115;28;19947;-72
2021/04/12 07:05:21;;;;;;;;;;;;;;;3.60;100.00;101352.13;5091964;28;19971;-72
2021/04/12 07:08:12;;;;;;;;;;;;;;;3.63;100.00;101357.34;5092719;28;19924;-72
2021/04/12 07:10:50;;;;;;;;;;;;;;;3.62;100.00;101355.63;5054221;28;20188;-72
2021/04/12 07:13:22;;;;;;;;;;;;;;;3.68;100.00;101365.22;5071509;28;19954;-71
2021/04/12 07:16:18;;;;;;;;;;;;;;;3.75;100.00;101355.09;5091486;28;19931;-72
2021/04/12 07:19:03;;;;;;;;;;;;;;;3.73;100.00;101356.97;5092043;28;19925;-71
2021/04/12 07:21:43;;;;;;;;;;;;;;;3.69;100.00;101353.56;5091133;28;19943;-72
2021/04/12 07:24:31;;;;;;;;;;;;;;;3.80;100.00;101356.66;5091936;28;19970;-72
2021/04/12 07:27:12;;;;;;;;;;;;;;;3.91;100.00;101358.00;5092082;28;19957;-71
2021/04/12 07:29:51;;;;;;;;;;;;;;;4.00;100.00;101365.66;5065351;28;19928;-72
2021/04/12 07:32:49;;;;;;;;;;;;;;;4.09;100.00;101362.59;5090132;28;19963;-72
2021/04/12 07:35:28;;;;;;;;;;;;;;;4.21;100.00;101368.34;5091647;28;19925;-71
2021/04/12 07:38:28;;;;;;;;;;;;;;;4.32;100.00;101366.06;5091900;28;19924;-72
2021/04/12 07:41:11;;;;;;;;;;;;;;;4.37;100.00;101385.56;5042822;28;19996;-72
2021/04/12 07:44:01;;;;;;;;;;;;;;;4.35;100.00;101373.97;5045744;28;19925;-72
2021/04/12 07:46:45;;;;;;;;;;;;;;;4.49;100.00;101389.47;5072885;28;19924;-72
2021/04/12 07:49:38;;;;;;;;;;;;;;;4.27;100.00;101389.56;5091092;28;19931;-72
2021/04/12 07:52:15;;;;;;;;;;;;;;;4.22;100.00;101386.22;5066957;28;19946;-71
2021/04/12 07:54:47;;;;;;;;;;;;;;;4.27;100.00;101390.44;5091510;28;19928;-71
2021/04/12 07:57:30;;;;;;;;;;;;;;;4.36;100.00;101392.72;5091201;28;19932;-71
2021/04/12 08:00:11;;;;;;;;;;;;;;;4.65;100.00;101405.78;5091433;28;20384;-71
2021/04/12 08:03:01;;;;;;;;;;;;;;;4.77;100.00;101405.25;5091030;28;20407;-71
2021/04/12 08:05:51;;;;;;;;;;;;;;;4.64;100.00;101409.44;5090770;28;19928;-71
2021/04/12 08:08:28;;;;;;;;;;;;;;;4.49;100.00;101401.13;5090944;28;19924;-71
2021/04/12 08:11:13;;;;;;;;;;;;;;;4.57;100.00;101414.22;5090919;28;19925;-72
2021/04/12 08:13:55;;;;;;;;;;;;;;;4.40;100.00;101412.28;5090744;28;19995;-71
2021/04/12 08:17:01;;;;;;;;;;;;;;;4.57;100.00;101419.59;5090394;28;19931;-71
2021/04/12 08:20:02;;;;;;;;;;;;;;;4.66;100.00;101412.91;5090453;28;19935;-71
2021/04/12 08:22:47;;;;;;;;;;;;;;;4.68;100.00;101419.13;5079489;28;19928;-71
2021/04/12 08:25:31;;;;;;;;;;;;;;;4.94;100.00;101425.97;5057438;28;20004;-71
2021/04/12 08:28:16;;;;;;;;;;;;;;;5.25;100.00;101423.66;5078418;28;20409;-71
2021/04/12 08:31:07;;;;;;;;;;;;;;;5.63;100.00;101434.41;5090341;28;20447;-71
2021/04/12 08:33:59;;;;;;;;;;;;;;;5.53;100.00;101439.34;5081487;28;19928;-71
2021/04/12 08:36:40;;;;;;;;;;;;;;;5.52;100.00;101441.19;5090286;28;19931;-71
2021/04/12 08:39:21;;;;;;;;;;;;;;;5.56;100.00;101435.63;5077452;28;19924;-71
2021/04/12 08:42:05;;;;;;;;;;;;;;;5.62;100.00;101443.44;5090311;28;19932;-71
2021/04/12 08:44:43;;;;;;;;;;;;;;;5.40;100.00;101443.59;5071859;28;19986;-71
2021/04/12 08:47:16;;;;;;;;;;;;;;;5.53;100.00;101452.81;5090266;28;19928;-71
2021/04/12 08:49:54;;;;;;;;;;;;;;;5.61;100.00;101455.13;5090320;28;19928;-71
2021/04/12 08:52:53;;;;;;;;;;;;;;;5.55;100.00;101477.00;5088544;28;20402;-71
2021/04/12 08:55:33;;;;;;;;;;;;;;;5.39;100.00;101485.81;5088086;28;20028;-71
2021/04/12 08:58:21;;;;;;;;;;;;;;;5.50;100.00;101475.38;5079014;28;20072;-72
2021/04/12 09:01:03;;;;;;;;;;;;;;;5.66;100.00;101475.50;5084979;28;19924;-72
2021/04/12 09:03:50;;;;;;;;;;;;;;;5.79;100.00;101483.88;5089896;28;19935;-71
2021/04/12 09:06:42;;;;;;;;;;;;;;;6.07;100.00;101473.59;5090387;28;20383;-71
2021/04/12 09:09:30;;;;;;;;;;;;;;;6.28;100.00;101485.09;5080718;28;20410;-71
2021/04/12 09:12:17;;;;;;;;;;;;;;;6.68;100.00;101472.22;5090336;28;19977;-71
2021/04/12 09:15:16;;;;;;;;;;;;;;;6.84;100.00;101480.38;5089546;28;19931;-72
2021/04/12 09:17:55;;;;;;;;;;;;;;;6.84;100.00;101464.19;5089540;28;19928;-72
2021/04/12 09:20:28;;;;;;;;;;;;;;;6.91;100.00;101470.13;5089680;28;19924;-72
2021/04/12 09:23:13;;;;;;;;;;;;;;;7.01;100.00;101465.97;5090338;28;19931;-72
2021/04/12 09:25:48;;;;;;;;;;;;;;;7.51;100.00;101470.41;5089471;28;20030;-71
2021/04/12 09:28:26;;;;;;;;;;;;;;;7.31;100.00;101478.72;5090075;28;20344;-71
2021/04/12 09:31:05;;;;;;;;;;;;;;;7.12;100.00;101473.47;5071653;28;20438;-72
2021/04/12 09:33:56;;;;;;;;;;;;;;;6.74;100.00;101463.81;5087226;28;19928;-72
2021/04/12 09:36:49;;;;;;;;;;;;;;;7.35;100.00;101465.00;5088998;28;19928;-71
2021/04/12 09:39:34;;;;;;;;;;;;;;;7.50;100.00;101475.91;5077872;28;20337;-71
2021/04/12 09:42:22;;;;;;;;;;;;;;;7.47;100.00;101465.25;5090785;28;19979;-71
2021/04/12 09:45:05;;;;;;;;;;;;;;;7.99;100.00;101477.59;5090603;28;20358;-71
2021/04/12 09:47:44;;;;;;;;;;;;;;;8.24;100.00;101484.28;5091121;28;19928;-71
2021/04/12 09:50:31;;;;;;;;;;;;;;;7.17;100.00;101485.75;5091279;28;19947;-72
2021/04/12 09:53:06;;;;;;;;;;;;;;;6.95;100.00;101488.78;5056898;28;19928;-72
2021/04/12 09:55:47;;;;;;;;;;;;;;;6.49;100.00;101491.22;5091592;28;19967;-72
2021/04/12 09:58:32;;;;;;;;;;;;;;;6.30;100.00;101496.69;5091834;28;19924;-72
2021/04/12 10:01:08;;;;;;;;;;;;;;;6.47;100.00;101498.53;5082935;28;20299;-72
2021/04/12 10:03:57;;;;;;;;;;;;;;;6.71;100.00;101501.75;5093889;28;20521;-72
2021/04/12 10:06:38;;;;;;;;;;;;;;;6.94;100.00;101507.75;5080986;28;19924;-72
2021/04/12 10:09:27;;;;;;;;;;;;;;;6.96;100.00;101500.44;5092991;28;19924;-71
2021/04/12 10:12:02;;;;;;;;;;;;;;;7.49;100.00;101502.03;5092982;28;19928;-71
2021/04/12 10:14:32;;;;;;;;;;;;;;;7.37;100.00;101500.00;5093040;28;20326;-71
2021/04/12 10:17:01;;;;;;;;;;;;;;;7.53;100.00;101500.03;5102184;28;20612;-72
2021/04/12 10:19:30;;;;;;;;;;;;;;;8.16;100.00;101488.31;5074973;28;19931;-72
2021/04/12 10:21:57;;;;;;;;;;;;;;;8.69;100.00;101498.75;5058101;28;20346;-72
2021/04/12 10:24:27;;;;;;;;;;;;;;;9.28;100.00;101504.09;5092252;28;19946;-71
2021/04/12 10:26:56;;;;;;;;;;;;;;;8.70;100.00;101514.03;5092837;28;19924;-71
2021/04/12 10:29:28;;;;;;;;;;;;;;;8.86;100.00;101498.56;5093031;28;20155;-71
2021/04/12 10:31:55;;;;;;;;;;;;;;;8.74;100.00;101504.75;5092840;28;19924;-72
2021/04/12 10:34:24;;;;;;;;;;;;;;;9.12;100.00;101506.03;5092148;28;19924;-71
2021/04/12 10:36:54;;;;;;;;;;;;;;;8.78;99.85;101494.56;5093421;28;20306;-71
2021/04/12 10:39:27;;;;;;;;;;;;;;;8.56;99.11;101508.56;5092855;28;20024;-71
2021/04/12 10:41:57;;;;;;;;;;;;;;;8.50;98.13;101516.09;5074889;28;19969;-71
2021/04/12 10:44:29;;;;;;;;;;;;;;;8.59;100.00;101511.06;5092483;28;20410;-71
2021/04/12 10:46:58;;;;;;;;;;;;;;;8.86;100.00;101513.97;5092475;28;19974;-71
2021/04/12 10:49:28;;;;;;;;;;;;;;;8.64;95.96;101514.38;5092554;28;19978;-72
2021/04/12 10:51:56;;;;;;;;;;;;;;;7.83;98.86;101521.75;5092682;28;19924;-72
2021/04/12 10:54:49;;;;;;;;;;;;;;;7.60;100.00;101527.56;5092229;28;19924;-72
2021/04/12 10:57:26;;;;;;;;;;;;;;;7.55;100.00;101527.84;5092552;28;19982;-71
2021/04/12 11:00:07;;;;;;;;;;;;;;;7.67;100.00;101531.66;5092628;28;19923;-72
2021/04/12 11:02:43;;;;;;;;;;;;;;;7.40;100.00;101536.78;5092898;28;20448;-71
2021/04/12 11:05:10;;;;;;;;;;;;;;;7.34;100.00;101538.00;5092784;28;19932;-72
2021/04/12 11:07:42;;;;;;;;;;;;;;;7.53;100.00;101538.72;5074307;28;19935;-71
2021/04/12 11:10:20;;;;;;;;;;;;;;;7.46;100.00;101537.31;5092078;28;19950;-71
2021/04/12 11:12:54;;;;;;;;;;;;;;;7.32;100.00;101546.19;5092451;28;19924;-71
2021/04/12 11:15:25;;;;;;;;;;;;;;;7.67;100.00;101553.28;5091852;28;19935;-71
2021/04/12 11:17:57;;;;;;;;;;;;;;;7.51;100.00;101553.28;5074339;28;19923;-70
2021/04/12 11:20:27;;;;;;;;;;;;;;;7.61;100.00;101551.81;5073973;28;19950;-71
2021/04/12 11:22:57;;;;;;;;;;;;;;;7.79;100.00;101551.72;5091876;28;19928;-71
2021/04/12 11:25:27;;;;;;;;;;;;;;;7.78;100.00;101556.28;5091564;28;19925;-70
2021/04/12 11:28:02;;;;;;;;;;;;;;;7.64;100.00;101546.25;5091611;28;19959;-71
2021/04/12 11:30:35;;;;;;;;;;;;;;;7.78;100.00;101553.56;5086601;28;20383;-71
2021/04/12 11:33:19;;;;;;;;;;;;;;;7.56;100.00;101548.47;5091327;28;19924;-71
2021/04/12 11:35:53;;;;;;;;;;;;;;;7.17;100.00;101539.78;5060613;28;19928;-70
2021/04/12 11:38:22;;;;;;;;;;;;;;;7.09;100.00;101555.53;5092034;28;20342;-71
2021/04/12 11:40:51;;;;;;;;;;;;;;;6.82;100.00;101564.13;5091685;28;20394;-71
2021/04/12 11:43:20;;;;;;;;;;;;;;;6.87;100.00;101556.66;5091275;28;19924;-72
2021/04/12 11:45:49;;;;;;;;;;;;;;;7.01;100.00;101555.06;5091754;28;19928;-71
2021/04/12 11:48:18;;;;;;;;;;;;;;;7.18;100.00;101562.28;5091864;28;20311;-71
2021/04/12 11:50:46;;;;;;;;;;;;;;;7.41;100.00;101561.00;5091509;28;19973;-70
2021/04/12 11:53:21;;;;;;;;;;;;;;;7.41;100.00;101555.59;5073911;28;19947;-70
2021/04/12 11:55:51;;;;;;;;;;;;;;;7.63;100.00;101558.00;5091404;28;19930;-70
2021/04/12 11:58:22;;;;;;;;;;;;;;;7.69;100.00;101548.69;5073783;28;19928;-70
2021/04/12 12:00:58;;;;;;;;;;;;;;;7.51;100.00;101559.56;5091295;28;19924;-70
2021/04/12 12:03:37;;;;;;;;;;;;;;;7.69;100.00;101556.78;5090555;28;19924;-70
2021/04/12 12:06:07;;;;;;;;;;;;;;;7.42;98.67;101562.75;5089333;28;20214;-70
2021/04/12 12:08:37;;;;;;;;;;;;;;;7.47;98.70;101565.19;5091036;28;19924;-71
2021/04/12 12:11:05;;;;;;;;;;;;;;;7.41;100.00;101579.06;5091081;28;19924;-70
2021/04/12 12:13:36;;;;;;;;;;;;;;;7.28;98.90;101577.03;5090208;28;19924;-71
2021/04/12 12:16:07;;;;;;;;;;;;;;;7.09;100.00;101581.66;5091260;28;19924;-71
2021/04/12 12:18:36;;;;;;;;;;;;;;;7.01;100.00;101582.91;5089805;28;19924;-70
2021/04/12 12:21:09;;;;;;;;;;;;;;;6.81;100.00;101583.97;5091025;28;19924;-70
2021/04/12 12:23:41;;;;;;;;;;;;;;;7.01;100.00;101579.34;5090375;28;19924;-70
2021/04/12 12:26:10;;;;;;;;;;;;;;;7.23;100.00;101576.41;5090365;28;19924;-71
2021/04/12 12:28:42;;;;;;;;;;;;;;;7.27;100.00;101585.19;5090574;28;19928;-70
2021/04/12 12:31:10;;;;;;;;;;;;;;;7.61;100.00;101586.94;5090235;28;19924;-70
2021/04/12 12:33:39;;;;;;;;;;;;;;;7.63;97.67;101581.44;5072437;28;19928;-70
2021/04/12 12:36:07;;;;;;;;;;;;;;;7.65;94.13;101584.94;5071837;28;19985;-71
2021/04/12 12:38:43;;;;;;;;;;;;;;;8.11;91.11;101579.66;5090113;28;19931;-71
2021/04/12 12:41:13;;;;;;;;;;;;;;;8.40;87.66;101585.19;5090053;28;19928;-71
2021/04/12 12:43:41;;;;;;;;;;;;;;;8.51;87.38;101588.19;5071678;28;19932;-71
2021/04/12 12:46:08;;;;;;;;;;;;;;;8.64;87.05;101585.63;5089890;28;19931;-71
2021/04/12 12:48:36;;;;;;;;;;;;;;;8.67;86.96;101589.97;5088820;28;19924;-71
2021/04/12 12:51:08;;;;;;;;;;;;;;;8.75;90.26;101582.25;5089487;28;19977;-71
2021/04/12 12:53:37;;;;;;;;;;;;;;;8.79;88.24;101583.84;5089062;28;19936;-71
2021/04/12 12:56:05;;;;;;;;;;;;;;;8.53;82.84;101602.50;5088487;28;19928;-72
2021/04/12 12:58:32;;;;;;;;;;;;;;;8.44;87.30;101594.88;5085590;28;19924;-71
2021/04/12 13:01:00;;;;;;;;;;;;;;;8.49;86.90;101603.63;5089376;28;19931;-72
2021/04/12 13:03:30;;;;;;;;;;;;;;;8.51;83.15;101601.72;5088519;28;20275;-71
2021/04/12 13:05:57;;;;;;;;;;;;;;;8.37;87.89;101602.47;5086389;28;19962;-72
2021/04/12 13:08:25;;;;;;;;;;;;;;;8.84;87.18;101605.22;5089435;28;20024;-71
2021/04/12 13:10:53;;;;;;;;;;;;;;;9.38;85.39;101608.22;5071162;28;20387;-72
2021/04/12 13:13:25;;;;;;;;;;;;;;;9.46;81.32;101618.59;5090563;28;19928;-71
2021/04/12 13:15:51;;;;;;;;;;;;;;;9.35;71.01;101613.84;5089843;28;20040;-71
2021/04/12 13:18:32;;;;;;;;;;;;;;;9.22;63.61;101607.44;5090240;28;19924;-71
2021/04/12 13:21:05;;;;;;;;;;;;;;;8.85;64.08;101593.44;5090366;28;19935;-71
2021/04/12 13:23:37;;;;;;;;;;;;;;;8.76;68.92;101608.38;5090726;28;19932;-71
2021/04/12 13:26:17;;;;;;;;;;;;;;;8.73;72.03;101613.97;5090474;28;19924;-71
2021/04/12 13:28:44;;;;;;;;;;;;;;;8.51;74.04;101601.72;5090110;28;19956;-71
2021/04/12 13:31:13;;;;;;;;;;;;;;;8.38;76.92;101601.53;5093100;28;19928;-72